sensor_id;sensor_type;location;lat;lon;timestamp;pressure;altitude;pressure_sealevel;temperature;humidity
72110;BME280;59983;52.010;5.420;2022-12-07T00:01:20;101864.13;;;4.48;94.72
72110;BME280;59983;52.010;5.420;2022-12-07T00:03:48;101864.19;;;4.43;95.04
72110;BME280;59983;52.010;5.420;2022-12-07T00:06:16;101864.72;;;4.40;94.58
72110;BME280;59983;52.010;5.420;2022-12-07T00:08:44;101868.19;;;4.46;94.91
72110;BME280;59983;52.010;5.420;2022-12-07T00:11:12;101871.38;;;4.53;95.48
72110;BME280;59983;52.010;5.420;2022-12-07T00:13:39;101866.31;;;4.46;95.12
72110;BME280;59983;52.010;5.420;2022-12-07T00:16:09;101867.91;;;4.47;95.59
72110;BME280;59983;52.010;5.420;2022-12-07T00:18:36;101871.91;;;4.50;95.52
72110;BME280;59983;52.010;5.420;2022-12-07T00:21:09;101860.91;;;4.51;95.58
72110;BME280;59983;52.010;5.420;2022-12-07T00:23:36;101865.19;;;4.52;95.04
72110;BME280;59983;52.010;5.420;2022-12-07T00:26:07;101863.59;;;4.51;95.66
72110;BME280;59983;52.010;5.420;2022-12-07T00:28:34;101860.31;;;4.60;96.07
72110;BME280;59983;52.010;5.420;2022-12-07T00:31:08;101865.06;;;4.73;95.62
72110;BME280;59983;52.010;5.420;2022-12-07T00:33:36;101854.28;;;4.78;95.27
72110;BME280;59983;52.010;5.420;2022-12-07T00:36:06;101858.56;;;4.79;95.70
72110;BME280;59983;52.010;5.420;2022-12-07T00:38:34;101863.34;;;4.87;95.54
72110;BME280;59983;52.010;5.420;2022-12-07T00:41:06;101858.47;;;4.89;95.37
72110;BME280;59983;52.010;5.420;2022-12-07T00:43:35;101862.78;;;4.90;95.59
72110;BME280;59983;52.010;5.420;2022-12-07T00:46:01;101856.88;;;4.88;94.77
72110;BME280;59983;52.010;5.420;2022-12-07T00:48:28;101858.22;;;4.86;95.54
72110;BME280;59983;52.010;5.420;2022-12-07T00:50:55;101845.88;;;4.84;94.78
72110;BME280;59983;52.010;5.420;2022-12-07T00:53:21;101849.41;;;4.80;94.88
72110;BME280;59983;52.010;5.420;2022-12-07T00:55:48;101848.09;;;4.77;94.58
72110;BME280;59983;52.010;5.420;2022-12-07T00:58:14;101832.81;;;4.73;94.51
72110;BME280;59983;52.010;5.420;2022-12-07T01:00:42;101834.69;;;4.72;94.86
72110;BME280;59983;52.010;5.420;2022-12-07T01:03:11;101834.97;;;4.71;95.38
72110;BME280;59983;52.010;5.420;2022-12-07T01:05:39;101827.47;;;4.68;95.13
72110;BME280;59983;52.010;5.420;2022-12-07T01:08:06;101823.97;;;4.67;94.71
72110;BME280;59983;52.010;5.420;2022-12-07T01:10:33;101828.81;;;4.65;94.88
72110;BME280;59983;52.010;5.420;2022-12-07T01:12:59;101835.28;;;4.64;95.27
72110;BME280;59983;52.010;5.420;2022-12-07T01:15:26;101830.72;;;4.65;95.00
72110;BME280;59983;52.010;5.420;2022-12-07T01:17:53;101838.75;;;4.70;94.90
72110;BME280;59983;52.010;5.420;2022-12-07T01:20:21;101845.22;;;4.64;94.75
72110;BME280;59983;52.010;5.420;2022-12-07T01:22:48;101855.97;;;4.64;94.65
72110;BME280;59983;52.010;5.420;2022-12-07T01:25:14;101844.72;;;4.62;94.92
72110;BME280;59983;52.010;5.420;2022-12-07T01:27:41;101853.59;;;4.57;94.34
72110;BME280;59983;52.010;5.420;2022-12-07T01:30:09;101855.50;;;4.57;94.44
72110;BME280;59983;52.010;5.420;2022-12-07T01:32:36;101857.38;;;4.56;93.99
72110;BME280;59983;52.010;5.420;2022-12-07T01:35:03;101852.78;;;4.62;94.23
72110;BME280;59983;52.010;5.420;2022-12-07T01:37:34;101845.53;;;4.62;94.11
72110;BME280;59983;52.010;5.420;2022-12-07T01:40:03;101845.00;;;4.60;93.62
72110;BME280;59983;52.010;5.420;2022-12-07T01:42:30;101843.13;;;4.55;93.73
72110;BME280;59983;52.010;5.420;2022-12-07T01:47:53;101848.81;;;4.49;94.33
72110;BME280;59983;52.010;5.420;2022-12-07T01:50:24;101846.97;;;4.44;93.93
72110;BME280;59983;52.010;5.420;2022-12-07T01:52:53;101845.66;;;4.42;94.42
72110;BME280;59983;52.010;5.420;2022-12-07T01:55:22;101838.63;;;4.46;94.72
72110;BME280;59983;52.010;5.420;2022-12-07T01:57:50;101832.22;;;4.42;94.58
72110;BME280;59983;52.010;5.420;2022-12-07T02:00:18;101834.63;;;4.43;94.49
72110;BME280;59983;52.010;5.420;2022-12-07T02:02:54;101844.03;;;4.41;94.46
72110;BME280;59983;52.010;5.420;2022-12-07T02:05:23;101839.47;;;4.41;93.72
72110;BME280;59983;52.010;5.420;2022-12-07T02:07:53;101835.72;;;4.42;93.58
72110;BME280;59983;52.010;5.420;2022-12-07T02:10:24;101828.25;;;4.34;93.79
72110;BME280;59983;52.010;5.420;2022-12-07T02:12:55;101829.84;;;4.35;93.63
72110;BME280;59983;52.010;5.420;2022-12-07T02:15:29;101834.97;;;4.32;93.75
72110;BME280;59983;52.010;5.420;2022-12-07T02:20:33;101836.88;;;4.26;93.91
72110;BME280;59983;52.010;5.420;2022-12-07T02:28:33;101849.56;;;4.15;92.69
72110;BME280;59983;52.010;5.420;2022-12-07T02:31:09;101838.28;;;4.13;93.42
72110;BME280;59983;52.010;5.420;2022-12-07T02:33:46;101845.81;;;4.16;93.39
72110;BME280;59983;52.010;5.420;2022-12-07T02:36:21;101849.00;;;4.18;93.97
72110;BME280;59983;52.010;5.420;2022-12-07T02:39:02;101831.84;;;4.14;93.75
72110;BME280;59983;52.010;5.420;2022-12-07T02:41:40;101834.75;;;4.23;93.68
72110;BME280;59983;52.010;5.420;2022-12-07T02:44:14;101843.34;;;4.25;93.50
72110;BME280;59983;52.010;5.420;2022-12-07T02:46:48;101833.13;;;4.27;93.24
72110;BME280;59983;52.010;5.420;2022-12-07T02:49:17;101831.19;;;4.33;93.57
72110;BME280;59983;52.010;5.420;2022-12-07T02:51:46;101834.94;;;4.37;93.08
72110;BME280;59983;52.010;5.420;2022-12-07T02:54:15;101828.50;;;4.33;93.48
72110;BME280;59983;52.010;5.420;2022-12-07T03:03:00;101836.97;;;4.16;93.79
72110;BME280;59983;52.010;5.420;2022-12-07T03:08:47;101832.75;;;4.00;93.85
72110;BME280;59983;52.010;5.420;2022-12-07T03:11:25;101834.06;;;3.97;93.90
72110;BME280;59983;52.010;5.420;2022-12-07T03:14:13;101826.81;;;3.97;93.60
72110;BME280;59983;52.010;5.420;2022-12-07T03:17:09;101833.25;;;3.96;93.38
72110;BME280;59983;52.010;5.420;2022-12-07T03:19:40;101831.44;;;3.87;93.34
72110;BME280;59983;52.010;5.420;2022-12-07T03:22:11;101823.44;;;3.82;93.85
72110;BME280;59983;52.010;5.420;2022-12-07T03:24:54;101826.63;;;3.84;93.44
72110;BME280;59983;52.010;5.420;2022-12-07T03:27:25;101835.47;;;3.89;93.67
72110;BME280;59983;52.010;5.420;2022-12-07T03:29:58;101844.56;;;3.98;93.80
72110;BME280;59983;52.010;5.420;2022-12-07T03:32:35;101837.56;;;3.97;93.25
72110;BME280;59983;52.010;5.420;2022-12-07T03:35:15;101830.28;;;4.03;94.00
72110;BME280;59983;52.010;5.420;2022-12-07T03:38:00;101831.09;;;4.04;93.66
72110;BME280;59983;52.010;5.420;2022-12-07T03:40:35;101820.34;;;4.09;94.13
72110;BME280;59983;52.010;5.420;2022-12-07T03:43:04;101813.38;;;4.08;93.99
72110;BME280;59983;52.010;5.420;2022-12-07T03:45:55;101810.41;;;4.09;93.44
72110;BME280;59983;52.010;5.420;2022-12-07T03:48:37;101805.78;;;4.15;93.98
72110;BME280;59983;52.010;5.420;2022-12-07T03:51:26;101807.44;;;4.11;93.62
72110;BME280;59983;52.010;5.420;2022-12-07T03:54:47;101800.75;;;4.03;93.31
72110;BME280;59983;52.010;5.420;2022-12-07T03:56:48;101806.91;;;4.09;92.83
72110;BME280;59983;52.010;5.420;2022-12-07T03:59:16;101808.00;;;4.08;92.52
72110;BME280;59983;52.010;5.420;2022-12-07T04:01:44;101803.50;;;3.93;91.68
72110;BME280;59983;52.010;5.420;2022-12-07T04:04:11;101811.63;;;3.78;91.36
72110;BME280;59983;52.010;5.420;2022-12-07T04:06:37;101804.94;;;3.70;91.98
72110;BME280;59983;52.010;5.420;2022-12-07T04:09:04;101807.38;;;3.66;91.81
72110;BME280;59983;52.010;5.420;2022-12-07T04:11:30;101810.88;;;3.62;91.61
72110;BME280;59983;52.010;5.420;2022-12-07T04:13:57;101810.06;;;3.61;92.20
72110;BME280;59983;52.010;5.420;2022-12-07T04:16:42;101810.34;;;3.60;91.69
72110;BME280;59983;52.010;5.420;2022-12-07T04:19:10;101811.94;;;3.71;92.44
72110;BME280;59983;52.010;5.420;2022-12-07T04:21:37;101818.84;;;3.82;92.86
72110;BME280;59983;52.010;5.420;2022-12-07T04:24:04;101805.66;;;3.91;92.81
72110;BME280;59983;52.010;5.420;2022-12-07T04:26:30;101811.31;;;3.89;93.23
72110;BME280;59983;52.010;5.420;2022-12-07T04:28:57;101810.19;;;3.95;93.21
72110;BME280;59983;52.010;5.420;2022-12-07T04:31:28;101803.44;;;4.03;93.29
72110;BME280;59983;52.010;5.420;2022-12-07T04:33:55;101805.84;;;4.10;93.02
72110;BME280;59983;52.010;5.420;2022-12-07T04:36:22;101803.16;;;4.05;93.31
72110;BME280;59983;52.010;5.420;2022-12-07T04:38:48;101798.06;;;4.08;93.12
72110;BME280;59983;52.010;5.420;2022-12-07T04:41:15;101797.50;;;4.11;93.17
72110;BME280;59983;52.010;5.420;2022-12-07T04:43:41;101796.97;;;4.09;93.26
72110;BME280;59983;52.010;5.420;2022-12-07T04:46:07;101795.03;;;4.15;93.08
72110;BME280;59983;52.010;5.420;2022-12-07T04:48:34;101797.47;;;4.16;93.13
72110;BME280;59983;52.010;5.420;2022-12-07T04:51:02;101805.50;;;4.21;92.81
72110;BME280;59983;52.010;5.420;2022-12-07T04:53:29;101799.66;;;4.09;92.63
72110;BME280;59983;52.010;5.420;2022-12-07T04:55:56;101800.81;;;3.93;92.62
72110;BME280;59983;52.010;5.420;2022-12-07T04:58:22;101815.56;;;3.95;92.80
72110;BME280;59983;52.010;5.420;2022-12-07T05:00:49;101821.22;;;3.94;92.25
72110;BME280;59983;52.010;5.420;2022-12-07T05:03:15;101811.00;;;3.96;92.71
72110;BME280;59983;52.010;5.420;2022-12-07T05:05:42;101810.75;;;3.92;92.42
72110;BME280;59983;52.010;5.420;2022-12-07T05:08:08;101801.63;;;3.88;93.32
72110;BME280;59983;52.010;5.420;2022-12-07T05:10:35;101784.44;;;3.94;93.17
72110;BME280;59983;52.010;5.420;2022-12-07T05:13:01;101774.44;;;4.05;93.74
72110;BME280;59983;52.010;5.420;2022-12-07T05:15:28;101777.66;;;4.07;94.17
72110;BME280;59983;52.010;5.420;2022-12-07T05:17:54;101781.16;;;4.03;94.02
72110;BME280;59983;52.010;5.420;2022-12-07T05:20:21;101778.72;;;4.06;93.70
72110;BME280;59983;52.010;5.420;2022-12-07T05:22:47;101784.63;;;4.08;93.90
72110;BME280;59983;52.010;5.420;2022-12-07T05:25:14;101785.97;;;4.11;94.61
72110;BME280;59983;52.010;5.420;2022-12-07T05:27:40;101789.72;;;4.10;94.05
72110;BME280;59983;52.010;5.420;2022-12-07T05:30:07;101785.16;;;4.10;93.55
72110;BME280;59983;52.010;5.420;2022-12-07T05:32:34;101781.09;;;4.13;93.90
72110;BME280;59983;52.010;5.420;2022-12-07T05:35:00;101783.56;;;4.09;93.97
72110;BME280;59983;52.010;5.420;2022-12-07T05:37:27;101781.63;;;4.15;94.22
72110;BME280;59983;52.010;5.420;2022-12-07T05:39:53;101793.66;;;4.22;94.01
72110;BME280;59983;52.010;5.420;2022-12-07T05:42:20;101782.69;;;4.19;94.01
72110;BME280;59983;52.010;5.420;2022-12-07T05:44:46;101786.47;;;4.18;93.73
72110;BME280;59983;52.010;5.420;2022-12-07T05:47:14;101786.47;;;4.18;93.93
72110;BME280;59983;52.010;5.420;2022-12-07T05:49:41;101795.03;;;4.20;93.63
72110;BME280;59983;52.010;5.420;2022-12-07T05:52:08;101790.44;;;4.25;93.79
72110;BME280;59983;52.010;5.420;2022-12-07T05:54:34;101791.53;;;4.24;93.50
72110;BME280;59983;52.010;5.420;2022-12-07T05:57:00;101786.75;;;4.16;93.23
72110;BME280;59983;52.010;5.420;2022-12-07T05:59:27;101782.19;;;4.12;93.71
72110;BME280;59983;52.010;5.420;2022-12-07T06:04:24;101781.66;;;4.10;93.46
72110;BME280;59983;52.010;5.420;2022-12-07T06:06:51;101780.88;;;4.09;93.32
72110;BME280;59983;52.010;5.420;2022-12-07T06:09:20;101778.19;;;4.09;92.55
72110;BME280;59983;52.010;5.420;2022-12-07T06:11:47;101788.66;;;4.06;93.23
72110;BME280;59983;52.010;5.420;2022-12-07T06:14:32;101791.63;;;4.04;92.62
72110;BME280;59983;52.010;5.420;2022-12-07T06:16:59;101796.97;;;4.09;93.34
72110;BME280;59983;52.010;5.420;2022-12-07T06:19:26;101790.25;;;4.12;92.40
72110;BME280;59983;52.010;5.420;2022-12-07T06:21:53;101795.09;;;4.10;92.83
72110;BME280;59983;52.010;5.420;2022-12-07T06:24:19;101795.41;;;4.03;92.83
72110;BME280;59983;52.010;5.420;2022-12-07T06:26:46;101796.47;;;4.07;92.51
72110;BME280;59983;52.010;5.420;2022-12-07T06:29:13;101786.25;;;4.09;92.80
72110;BME280;59983;52.010;5.420;2022-12-07T06:31:40;101792.44;;;4.05;92.81
72110;BME280;59983;52.010;5.420;2022-12-07T06:34:13;101785.47;;;4.04;92.28
72110;BME280;59983;52.010;5.420;2022-12-07T06:36:40;101791.09;;;4.02;92.14
72110;BME280;59983;52.010;5.420;2022-12-07T06:39:07;101793.22;;;4.05;91.92
72110;BME280;59983;52.010;5.420;2022-12-07T06:41:38;101794.59;;;4.03;92.86
72110;BME280;59983;52.010;5.420;2022-12-07T06:44:06;101794.28;;;4.09;92.72
72110;BME280;59983;52.010;5.420;2022-12-07T06:46:33;101793.22;;;4.05;92.82
72110;BME280;59983;52.010;5.420;2022-12-07T06:49:02;101793.22;;;4.05;92.48
72110;BME280;59983;52.010;5.420;2022-12-07T06:51:29;101789.22;;;4.08;92.94
72110;BME280;59983;52.010;5.420;2022-12-07T06:53:56;101795.41;;;4.03;92.58
72110;BME280;59983;52.010;5.420;2022-12-07T06:56:23;101797.28;;;4.03;92.31
72110;BME280;59983;52.010;5.420;2022-12-07T06:58:49;101801.84;;;4.02;92.99
72110;BME280;59983;52.010;5.420;2022-12-07T07:01:17;101798.66;;;4.00;92.02
72110;BME280;59983;52.010;5.420;2022-12-07T07:03:46;101796.25;;;3.98;92.80
72110;BME280;59983;52.010;5.420;2022-12-07T07:06:13;101798.13;;;3.93;92.51
72110;BME280;59983;52.010;5.420;2022-12-07T07:08:40;101794.66;;;3.92;92.53
72110;BME280;59983;52.010;5.420;2022-12-07T07:11:08;101787.13;;;3.94;92.43
72110;BME280;59983;52.010;5.420;2022-12-07T07:13:35;101795.97;;;3.95;92.51
72110;BME280;59983;52.010;5.420;2022-12-07T07:16:02;101796.25;;;3.88;92.15
72110;BME280;59983;52.010;5.420;2022-12-07T07:18:29;101795.25;;;3.79;92.70
72110;BME280;59983;52.010;5.420;2022-12-07T07:20:55;101790.47;;;3.71;92.18
72110;BME280;59983;52.010;5.420;2022-12-07T07:23:22;101797.72;;;3.65;92.76
72110;BME280;59983;52.010;5.420;2022-12-07T07:25:49;101795.38;;;3.54;92.58
72110;BME280;59983;52.010;5.420;2022-12-07T07:28:16;101783.28;;;3.56;92.78
72110;BME280;59983;52.010;5.420;2022-12-07T07:30:42;101792.94;;;3.52;92.33
72110;BME280;59983;52.010;5.420;2022-12-07T07:33:09;101796.16;;;3.49;92.12
72110;BME280;59983;52.010;5.420;2022-12-07T07:35:36;101792.97;;;3.47;92.22
72110;BME280;59983;52.010;5.420;2022-12-07T07:38:03;101798.13;;;3.28;91.86
72110;BME280;59983;52.010;5.420;2022-12-07T07:40:30;101804.84;;;3.16;91.43
72110;BME280;59983;52.010;5.420;2022-12-07T07:42:57;101793.59;;;3.13;91.30
72110;BME280;59983;52.010;5.420;2022-12-07T07:45:24;101807.81;;;3.04;91.47
72110;BME280;59983;52.010;5.420;2022-12-07T07:47:52;101807.25;;;3.07;91.78
72110;BME280;59983;52.010;5.420;2022-12-07T07:50:19;101799.25;;;3.02;91.79
72110;BME280;59983;52.010;5.420;2022-12-07T07:52:46;101804.06;;;2.95;91.62
72110;BME280;59983;52.010;5.420;2022-12-07T07:55:12;101803.00;;;2.96;91.90
72110;BME280;59983;52.010;5.420;2022-12-07T07:57:39;101801.66;;;2.98;91.40
72110;BME280;59983;52.010;5.420;2022-12-07T08:00:12;101802.72;;;3.02;91.13
72110;BME280;59983;52.010;5.420;2022-12-07T08:02:39;101798.19;;;2.93;91.22
72110;BME280;59983;52.010;5.420;2022-12-07T08:05:06;101802.47;;;2.83;91.57
72110;BME280;59983;52.010;5.420;2022-12-07T08:07:33;101804.09;;;2.84;91.54
72110;BME280;59983;52.010;5.420;2022-12-07T08:09:59;101800.84;;;2.88;91.62
72110;BME280;59983;52.010;5.420;2022-12-07T08:12:27;101809.97;;;2.76;91.20
72110;BME280;59983;52.010;5.420;2022-12-07T08:14:53;101808.09;;;2.67;91.09
72110;BME280;59983;52.010;5.420;2022-12-07T08:17:19;101808.09;;;2.62;91.46
72110;BME280;59983;52.010;5.420;2022-12-07T08:19:46;101813.97;;;2.64;91.93
72110;BME280;59983;52.010;5.420;2022-12-07T08:22:12;101811.84;;;2.66;91.74
72110;BME280;59983;52.010;5.420;2022-12-07T08:24:39;101814.81;;;2.74;91.76
72110;BME280;59983;52.010;5.420;2022-12-07T08:27:05;101809.44;;;2.84;92.12
72110;BME280;59983;52.010;5.420;2022-12-07T08:29:32;101814.25;;;2.88;91.72
72110;BME280;59983;52.010;5.420;2022-12-07T08:31:58;101809.16;;;2.91;91.72
72110;BME280;59983;52.010;5.420;2022-12-07T08:34:33;101811.81;;;2.91;91.85
72110;BME280;59983;52.010;5.420;2022-12-07T08:37:00;101811.59;;;2.93;91.87
72110;BME280;59983;52.010;5.420;2022-12-07T08:39:26;101825.75;;;2.98;92.27
72110;BME280;59983;52.010;5.420;2022-12-07T08:41:58;101818.25;;;3.16;92.71
72110;BME280;59983;52.010;5.420;2022-12-07T08:44:24;101823.88;;;3.19;92.09
72110;BME280;59983;52.010;5.420;2022-12-07T08:46:58;101826.53;;;3.29;92.58
72110;BME280;59983;52.010;5.420;2022-12-07T08:49:38;101822.72;;;3.51;92.69
72110;BME280;59983;52.010;5.420;2022-12-07T08:52:05;101818.34;;;3.75;92.66
72110;BME280;59983;52.010;5.420;2022-12-07T08:54:35;101826.56;;;3.94;92.82
72110;BME280;59983;52.010;5.420;2022-12-07T08:57:04;101824.97;;;3.98;93.68
72110;BME280;59983;52.010;5.420;2022-12-07T08:59:30;101815.03;;;3.93;93.69
72110;BME280;59983;52.010;5.420;2022-12-07T09:01:58;101823.34;;;3.97;94.22
72110;BME280;59983;52.010;5.420;2022-12-07T09:04:25;101820.34;;;4.04;93.78
72110;BME280;59983;52.010;5.420;2022-12-07T09:06:53;101812.28;;;4.09;94.13
72110;BME280;59983;52.010;5.420;2022-12-07T09:09:20;101814.91;;;4.19;94.27
72110;BME280;59983;52.010;5.420;2022-12-07T09:11:47;101816.72;;;4.34;94.83
72110;BME280;59983;52.010;5.420;2022-12-07T09:14:13;101830.16;;;4.29;93.83
72110;BME280;59983;52.010;5.420;2022-12-07T09:16:40;101818.63;;;4.23;93.86
72110;BME280;59983;52.010;5.420;2022-12-07T09:19:07;101822.91;;;4.29;94.43
72110;BME280;59983;52.010;5.420;2022-12-07T09:21:34;101814.84;;;4.29;93.90
72110;BME280;59983;52.010;5.420;2022-12-07T09:24:00;101818.84;;;4.32;94.33
72110;BME280;59983;52.010;5.420;2022-12-07T09:26:27;101812.97;;;4.30;93.91
72110;BME280;59983;52.010;5.420;2022-12-07T09:28:53;101823.69;;;4.35;94.44
72110;BME280;59983;52.010;5.420;2022-12-07T09:31:20;101825.00;;;4.37;94.21
72110;BME280;59983;52.010;5.420;2022-12-07T09:34:00;101822.03;;;4.39;93.65
72110;BME280;59983;52.010;5.420;2022-12-07T09:36:27;101811.78;;;4.46;93.92
72110;BME280;59983;52.010;5.420;2022-12-07T09:38:55;101807.19;;;4.51;94.13
72110;BME280;59983;52.010;5.420;2022-12-07T09:41:22;101812.22;;;4.58;94.24
72110;BME280;59983;52.010;5.420;2022-12-07T09:43:50;101816.78;;;4.58;94.40
72110;BME280;59983;52.010;5.420;2022-12-07T09:46:18;101813.78;;;4.64;94.14
72110;BME280;59983;52.010;5.420;2022-12-07T09:48:46;101819.66;;;4.71;94.32
72110;BME280;59983;52.010;5.420;2022-12-07T09:51:17;101812.91;;;4.74;93.38
72110;BME280;59983;52.010;5.420;2022-12-07T09:53:51;101806.16;;;4.76;94.31
72110;BME280;59983;52.010;5.420;2022-12-07T09:56:18;101807.41;;;4.89;94.27
72110;BME280;59983;52.010;5.420;2022-12-07T09:58:45;101814.00;;;5.02;94.00
72110;BME280;59983;52.010;5.420;2022-12-07T10:01:17;101807.78;;;5.06;93.38
72110;BME280;59983;52.010;5.420;2022-12-07T10:03:50;101805.84;;;5.12;93.83
72110;BME280;59983;52.010;5.420;2022-12-07T10:06:17;101804.78;;;5.13;93.35
72110;BME280;59983;52.010;5.420;2022-12-07T10:08:44;101798.31;;;5.14;93.14
72110;BME280;59983;52.010;5.420;2022-12-07T10:11:11;101800.38;;;5.22;93.71
72110;BME280;59983;52.010;5.420;2022-12-07T10:18:55;101799.19;;;5.33;93.96
72110;BME280;59983;52.010;5.420;2022-12-07T10:21:30;101795.41;;;5.34;93.33
72110;BME280;59983;52.010;5.420;2022-12-07T10:24:08;101787.53;;;5.38;93.52
72110;BME280;59983;52.010;5.420;2022-12-07T10:29:18;101776.69;;;5.48;93.08
72110;BME280;59983;52.010;5.420;2022-12-07T10:31:58;101774.72;;;5.54;93.50
72110;BME280;59983;52.010;5.420;2022-12-07T10:34:28;101765.00;;;5.58;93.49
72110;BME280;59983;52.010;5.420;2022-12-07T10:37:17;101767.84;;;5.66;93.00
72110;BME280;59983;52.010;5.420;2022-12-07T10:39:50;101759.69;;;5.72;93.02
72110;BME280;59983;52.010;5.420;2022-12-07T10:44:50;101752.47;;;5.91;92.90
72110;BME280;59983;52.010;5.420;2022-12-07T11:04:24;101743.22;;;6.16;93.80
72110;BME280;59983;52.010;5.420;2022-12-07T11:07:08;101746.72;;;6.16;93.33
72110;BME280;59983;52.010;5.420;2022-12-07T11:09:51;101748.84;;;6.19;92.73
72110;BME280;59983;52.010;5.420;2022-12-07T11:18:48;101744.75;;;6.22;92.02
72110;BME280;59983;52.010;5.420;2022-12-07T11:21:27;101735.56;;;6.23;91.82
72110;BME280;59983;52.010;5.420;2022-12-07T11:24:18;101733.66;;;6.23;91.42
72110;BME280;59983;52.010;5.420;2022-12-07T11:32:44;101728.41;;;6.32;91.23
72110;BME280;59983;52.010;5.420;2022-12-07T11:35:32;101734.84;;;6.36;91.38
72110;BME280;59983;52.010;5.420;2022-12-07T11:38:02;101724.75;;;6.42;91.15
72110;BME280;59983;52.010;5.420;2022-12-07T11:40:35;101723.34;;;6.44;91.01
72110;BME280;59983;52.010;5.420;2022-12-07T11:45:41;101706.13;;;6.45;90.48
72110;BME280;59983;52.010;5.420;2022-12-07T11:48:15;101711.50;;;6.45;90.33
72110;BME280;59983;52.010;5.420;2022-12-07T11:50:51;101708.47;;;6.33;89.53
72110;BME280;59983;52.010;5.420;2022-12-07T11:53:26;101703.53;;;6.21;89.14
72110;BME280;59983;52.010;5.420;2022-12-07T12:01:18;101693.72;;;6.44;89.52
72110;BME280;59983;52.010;5.420;2022-12-07T12:03:51;101691.00;;;6.63;88.99
72110;BME280;59983;52.010;5.420;2022-12-07T12:06:20;101694.28;;;6.74;89.22
72110;BME280;59983;52.010;5.420;2022-12-07T12:12:09;101682.41;;;6.89;88.20
72110;BME280;59983;52.010;5.420;2022-12-07T12:25:40;101675.03;;;6.94;86.54
72110;BME280;59983;52.010;5.420;2022-12-07T12:31:04;101669.22;;;6.87;86.18
72110;BME280;59983;52.010;5.420;2022-12-07T12:33:31;101665.84;;;6.95;86.47
72110;BME280;59983;52.010;5.420;2022-12-07T12:36:28;101668.84;;;7.07;86.48
72110;BME280;59983;52.010;5.420;2022-12-07T12:39:12;101667.44;;;7.10;86.54
72110;BME280;59983;52.010;5.420;2022-12-07T12:46:54;101647.03;;;7.04;86.28
72110;BME280;59983;52.010;5.420;2022-12-07T12:54:19;101644.75;;;6.70;86.21
72110;BME280;59983;52.010;5.420;2022-12-07T12:56:48;101642.56;;;6.72;86.59
72110;BME280;59983;52.010;5.420;2022-12-07T13:01:48;101632.97;;;6.79;86.48
72110;BME280;59983;52.010;5.420;2022-12-07T13:04:25;101639.97;;;6.80;86.30
72110;BME280;59983;52.010;5.420;2022-12-07T13:06:53;101635.75;;;6.88;86.17
72110;BME280;59983;52.010;5.420;2022-12-07T13:09:31;101632.97;;;6.93;86.18
72110;BME280;59983;52.010;5.420;2022-12-07T13:12:02;101631.16;;;6.89;85.93
72110;BME280;59983;52.010;5.420;2022-12-07T13:17:11;101626.00;;;6.92;85.82
72110;BME280;59983;52.010;5.420;2022-12-07T13:24:57;101624.28;;;6.96;86.11
72110;BME280;59983;52.010;5.420;2022-12-07T13:27:26;101620.91;;;6.91;86.07
72110;BME280;59983;52.010;5.420;2022-12-07T13:29:56;101615.16;;;7.06;86.51
72110;BME280;59983;52.010;5.420;2022-12-07T13:32:28;101607.88;;;7.20;85.62
72110;BME280;59983;52.010;5.420;2022-12-07T13:34:55;101598.28;;;7.14;85.54
72110;BME280;59983;52.010;5.420;2022-12-07T13:37:26;101603.50;;;7.10;85.03
72110;BME280;59983;52.010;5.420;2022-12-07T13:39:58;101599.78;;;7.06;84.87
72110;BME280;59983;52.010;5.420;2022-12-07T13:42:26;101593.72;;;7.01;84.81
72110;BME280;59983;52.010;5.420;2022-12-07T13:44:54;101599.63;;;6.89;84.54
72110;BME280;59983;52.010;5.420;2022-12-07T13:49:54;101589.25;;;6.82;84.74
72110;BME280;59983;52.010;5.420;2022-12-07T13:52:24;101587.66;;;6.81;84.78
72110;BME280;59983;52.010;5.420;2022-12-07T13:54:59;101585.03;;;6.90;84.83
72110;BME280;59983;52.010;5.420;2022-12-07T13:57:29;101585.72;;;7.09;85.23
72110;BME280;59983;52.010;5.420;2022-12-07T13:59:57;101584.72;;;7.42;85.26
72110;BME280;59983;52.010;5.420;2022-12-07T14:02:34;101586.97;;;7.62;82.93
72110;BME280;59983;52.010;5.420;2022-12-07T14:05:12;101591.03;;;7.59;82.77
72110;BME280;59983;52.010;5.420;2022-12-07T14:10:41;101584.13;;;7.45;82.79
72110;BME280;59983;52.010;5.420;2022-12-07T14:16:01;101572.94;;;7.37;82.68
72110;BME280;59983;52.010;5.420;2022-12-07T14:18:38;101575.66;;;7.24;82.47
72110;BME280;59983;52.010;5.420;2022-12-07T14:21:16;101570.22;;;7.01;83.03
72110;BME280;59983;52.010;5.420;2022-12-07T14:24:14;101559.47;;;6.88;83.73
72110;BME280;59983;52.010;5.420;2022-12-07T14:26:42;101559.66;;;6.77;84.59
72110;BME280;59983;52.010;5.420;2022-12-07T14:31:54;101565.97;;;6.59;85.28
72110;BME280;59983;52.010;5.420;2022-12-07T14:34:22;101562.28;;;6.55;84.82
72110;BME280;59983;52.010;5.420;2022-12-07T14:36:49;101567.97;;;6.53;84.23
72110;BME280;59983;52.010;5.420;2022-12-07T14:39:15;101558.41;;;6.47;84.27
72110;BME280;59983;52.010;5.420;2022-12-07T14:41:42;101555.78;;;6.42;84.23
72110;BME280;59983;52.010;5.420;2022-12-07T14:44:19;101550.91;;;6.44;83.84
72110;BME280;59983;52.010;5.420;2022-12-07T14:46:50;101545.00;;;6.42;83.63
72110;BME280;59983;52.010;5.420;2022-12-07T14:49:37;101551.41;;;6.46;83.67
72110;BME280;59983;52.010;5.420;2022-12-07T14:52:04;101541.53;;;6.42;83.49
72110;BME280;59983;52.010;5.420;2022-12-07T14:54:52;101543.41;;;6.41;82.79
72110;BME280;59983;52.010;5.420;2022-12-07T14:57:19;101548.63;;;6.38;82.63
72110;BME280;59983;52.010;5.420;2022-12-07T14:59:45;101546.63;;;6.30;82.67
72110;BME280;59983;52.010;5.420;2022-12-07T15:02:13;101539.63;;;6.29;82.38
72110;BME280;59983;52.010;5.420;2022-12-07T15:04:40;101545.91;;;6.24;82.45
72110;BME280;59983;52.010;5.420;2022-12-07T15:07:15;101537.63;;;6.20;82.31
72110;BME280;59983;52.010;5.420;2022-12-07T15:09:44;101543.50;;;6.22;82.60
72110;BME280;59983;52.010;5.420;2022-12-07T15:12:11;101537.81;;;6.51;82.59
72110;BME280;59983;52.010;5.420;2022-12-07T15:14:37;101541.75;;;6.45;81.84